Time;durP1;ratioP1;P1;durP2;ratioP2;P2;SDS_P1;SDS_P2;PMS_P1;PMS_P2;Temp;Humidity;BMP_temperature;BMP_pressure;BME280_temperature;BME280_humidity;BME280_pressure;Samples;Min_cycle;Max_cycle;Signal;HPM_P1;HPM_P2
2022/08/02 00:01:01;;;;;;;12.45;6.10;;;15.60;75.80;;;;;;5068509;28;20021;-68
2022/08/02 00:03:27;;;;;;;7.45;4.50;;;15.60;75.50;;;;;;5061008;28;20024;-69
2022/08/02 00:05:55;;;;;;;8.60;5.28;;;15.60;75.60;;;;;;5072291;28;20082;-69
2022/08/02 00:08:21;;;;;;;8.75;5.55;;;15.60;75.60;;;;;;5065827;28;20052;-69
2022/08/02 00:10:47;;;;;;;6.88;4.93;;;15.60;75.40;;;;;;5069591;28;20040;-68
2022/08/02 00:13:16;;;;;;;8.45;5.25;;;15.60;75.40;;;;;;5063152;28;20029;-68
2022/08/02 00:15:43;;;;;;;11.63;6.20;;;15.60;75.50;;;;;;5060759;28;20021;-68
2022/08/02 00:18:09;;;;;;;10.23;6.40;;;15.60;75.50;;;;;;5060646;28;20108;-68
2022/08/02 00:20:35;;;;;;;8.55;5.65;;;15.60;75.40;;;;;;5063227;28;20107;-68
2022/08/02 00:23:08;;;;;;;8.95;5.43;;;15.60;75.50;;;;;;5072188;28;20306;-68
2022/08/02 00:25:34;;;;;;;10.07;5.78;;;15.60;75.30;;;;;;5073624;28;20078;-68
2022/08/02 00:28:03;;;;;;;9.27;5.60;;;15.70;75.10;;;;;;5079177;28;20041;-70
2022/08/02 00:30:34;;;;;;;8.40;5.07;;;15.70;75.10;;;;;;5077443;28;20039;-69
2022/08/02 00:33:01;;;;;;;7.28;5.05;;;15.70;75.00;;;;;;5058798;28;20032;-70
2022/08/02 00:35:30;;;;;;;8.15;5.20;;;15.70;75.10;;;;;;5087985;28;20044;-68
2022/08/02 00:37:55;;;;;;;7.95;5.35;;;15.70;75.30;;;;;;5074171;28;20111;-67
2022/08/02 00:40:22;;;;;;;9.45;5.28;;;15.70;75.30;;;;;;5061021;28;20124;-67
2022/08/02 00:43:05;;;;;;;10.18;5.22;;;15.60;75.40;;;;;;5069496;28;20052;-68
2022/08/02 00:45:35;;;;;;;7.97;5.25;;;15.60;75.10;;;;;;5072363;28;20419;-68
2022/08/02 00:48:11;;;;;;;7.32;4.35;;;15.70;75.10;;;;;;5072392;28;20218;-68
2022/08/02 00:50:38;;;;;;;7.57;4.53;;;15.70;75.10;;;;;;5069724;28;20040;-68
2022/08/02 00:53:10;;;;;;;8.77;4.15;;;15.70;75.30;;;;;;5073210;28;20028;-68
2022/08/02 00:55:36;;;;;;;11.02;4.60;;;15.70;75.70;;;;;;5071821;28;20036;-68
2022/08/02 00:58:08;;;;;;;6.68;4.07;;;15.70;75.60;;;;;;5074905;28;20029;-69
2022/08/02 01:00:35;;;;;;;6.32;3.97;;;15.70;75.60;;;;;;5072441;28;20025;-68
2022/08/02 01:03:01;;;;;;;6.97;4.53;;;15.70;75.70;;;;;;5068842;28;20039;-70
2022/08/02 01:05:27;;;;;;;6.43;3.97;;;15.70;75.60;;;;;;5072757;28;20549;-68
2022/08/02 01:07:52;;;;;;;6.85;3.63;;;15.60;75.50;;;;;;5072689;28;20047;-68
2022/08/02 01:10:20;;;;;;;6.68;4.30;;;15.70;75.30;;;;;;5065413;28;20057;-68
2022/08/02 01:12:46;;;;;;;8.38;4.75;;;15.70;75.80;;;;;;5068195;28;20029;-68
2022/08/02 01:15:22;;;;;;;6.45;4.15;;;15.70;75.90;;;;;;5073312;28;20036;-68
2022/08/02 01:18:01;;;;;;;7.05;4.47;;;15.70;76.30;;;;;;5070347;28;20415;-68
2022/08/02 01:20:53;;;;;;;8.55;4.47;;;15.60;76.60;;;;;;5072810;28;20020;-68
2022/08/02 01:23:37;;;;;;;8.23;5.10;;;15.60;76.70;;;;;;5071068;28;20095;-68
2022/08/02 01:26:31;;;;;;;9.05;4.50;;;15.60;76.90;;;;;;5071281;28;20033;-68
2022/08/02 01:29:11;;;;;;;8.57;4.53;;;15.50;77.30;;;;;;5068722;28;20099;-68
2022/08/02 01:31:58;;;;;;;7.97;5.32;;;15.40;77.40;;;;;;5067373;28;20025;-68
2022/08/02 01:34:34;;;;;;;9.40;5.10;;;15.40;77.20;;;;;;5071976;28;20031;-68
2022/08/02 01:37:12;;;;;;;8.30;5.15;;;15.40;77.10;;;;;;5070744;28;20030;-68
2022/08/02 01:39:45;;;;;;;6.80;4.47;;;15.30;76.70;;;;;;5069389;28;20046;-68
2022/08/02 01:42:12;;;;;;;6.17;3.90;;;15.30;76.90;;;;;;5070560;28;20303;-68
2022/08/02 01:44:41;;;;;;;7.40;4.32;;;15.20;76.70;;;;;;5074123;28;20025;-67
2022/08/02 01:47:12;;;;;;;7.07;4.07;;;15.20;76.70;;;;;;5069790;28;20055;-69
2022/08/02 01:49:43;;;;;;;5.70;3.78;;;15.20;77.00;;;;;;5072330;28;20025;-67
2022/08/02 01:52:24;;;;;;;7.97;3.70;;;15.20;76.80;;;;;;5071645;28;20033;-69
2022/08/02 01:55:00;;;;;;;4.95;3.40;;;15.10;77.50;;;;;;5070906;28;20334;-68
2022/08/02 01:57:36;;;;;;;5.35;3.60;;;15.00;77.50;;;;;;5073732;28;20028;-68
2022/08/02 02:00:05;;;;;;;6.82;3.80;;;15.00;78.00;;;;;;5067405;28;20032;-68
2022/08/02 02:02:33;;;;;;;10.88;3.97;;;14.90;78.00;;;;;;5065775;28;20020;-67
2022/08/02 02:05:00;;;;;;;10.20;4.00;;;14.90;77.40;;;;;;5075277;28;20025;-68
2022/08/02 02:07:29;;;;;;;7.93;3.90;;;14.80;77.50;;;;;;5074188;28;20036;-69
2022/08/02 02:09:57;;;;;;;7.40;3.72;;;14.80;77.30;;;;;;5073400;28;20029;-69
2022/08/02 02:12:24;;;;;;;8.30;3.65;;;14.80;77.30;;;;;;5073797;28;20021;-68
2022/08/02 02:14:51;;;;;;;7.00;3.47;;;14.80;77.20;;;;;;5042097;28;20445;-69
2022/08/02 02:17:19;;;;;;;6.43;4.57;;;14.80;77.10;;;;;;5050866;28;20036;-69
2022/08/02 02:19:46;;;;;;;6.63;4.00;;;14.80;77.20;;;;;;5072224;28;20035;-69
2022/08/02 02:22:14;;;;;;;6.15;4.10;;;14.70;77.60;;;;;;5061023;28;20458;-69
2022/08/02 02:24:42;;;;;;;5.82;3.83;;;14.70;77.50;;;;;;5059873;28;20051;-69
2022/08/02 02:27:11;;;;;;;7.93;4.45;;;14.60;77.30;;;;;;5059479;28;20025;-69
2022/08/02 02:29:43;;;;;;;7.35;4.03;;;14.60;77.10;;;;;;5069346;28;20046;-70
2022/08/02 02:32:13;;;;;;;5.97;3.55;;;14.50;77.20;;;;;;5065860;28;20066;-69
2022/08/02 02:34:43;;;;;;;6.78;3.75;;;14.50;76.70;;;;;;5058539;28;20512;-69
2022/08/02 02:37:15;;;;;;;9.63;4.45;;;14.50;76.70;;;;;;5063192;28;20017;-69
2022/08/02 02:39:42;;;;;;;7.93;4.63;;;14.50;76.40;;;;;;5064757;28;20082;-69
2022/08/02 02:42:12;;;;;;;7.35;4.28;;;14.50;76.40;;;;;;5068966;28;20025;-69
2022/08/02 02:44:39;;;;;;;7.45;4.03;;;14.40;76.40;;;;;;5074102;28;20107;-69
2022/08/02 02:47:06;;;;;;;7.03;4.55;;;14.40;76.10;;;;;;5064331;28;20028;-69
2022/08/02 02:49:34;;;;;;;6.32;3.80;;;14.40;76.50;;;;;;5065259;28;20418;-69
2022/08/02 02:52:02;;;;;;;8.07;4.65;;;14.40;76.30;;;;;;5069161;28;20103;-69
2022/08/02 02:54:29;;;;;;;6.85;4.40;;;14.30;76.30;;;;;;5054393;28;20045;-69
2022/08/02 02:56:58;;;;;;;6.90;3.92;;;14.30;76.20;;;;;;5070813;28;20024;-69
2022/08/02 02:59:24;;;;;;;8.65;4.60;;;14.30;75.90;;;;;;5064609;28;20063;-69
2022/08/02 03:01:55;;;;;;;7.75;4.40;;;14.40;75.80;;;;;;5070113;28;20056;-70
2022/08/02 03:04:21;;;;;;;6.47;4.60;;;14.40;75.80;;;;;;5042943;28;20017;-69
2022/08/02 03:06:47;;;;;;;6.03;3.90;;;14.40;76.00;;;;;;5069670;28;20021;-70
2022/08/02 03:09:15;;;;;;;6.78;4.03;;;14.50;75.70;;;;;;5065640;28;20028;-70
2022/08/02 03:11:44;;;;;;;7.10;4.72;;;14.50;75.80;;;;;;5073475;28;20442;-69
2022/08/02 03:14:11;;;;;;;6.45;4.25;;;14.40;76.30;;;;;;5066504;28;20041;-70
2022/08/02 03:16:47;;;;;;;7.80;4.53;;;14.30;76.00;;;;;;5055463;28;20044;-69
2022/08/02 03:19:27;;;;;;;6.80;4.38;;;14.30;75.90;;;;;;5061872;28;20033;-69
2022/08/02 03:21:53;;;;;;;8.50;4.82;;;14.30;76.10;;;;;;5078180;28;20032;-69
2022/08/02 03:24:19;;;;;;;6.95;4.50;;;14.20;75.90;;;;;;5072771;28;20099;-69
2022/08/02 03:26:45;;;;;;;7.20;4.38;;;14.20;75.80;;;;;;5072264;28;20020;-70
2022/08/02 03:29:13;;;;;;;7.93;4.22;;;14.20;76.00;;;;;;5051281;28;22160;-69
2022/08/02 03:31:42;;;;;;;7.40;4.05;;;14.20;76.10;;;;;;5064872;28;20040;-68
2022/08/02 03:34:16;;;;;;;12.45;4.18;;;14.10;75.90;;;;;;5049447;28;20427;-68
2022/08/02 03:36:42;;;;;;;7.43;3.80;;;14.20;75.60;;;;;;5057482;28;20072;-68
2022/08/02 03:39:12;;;;;;;7.43;4.28;;;14.20;75.50;;;;;;5064549;28;20029;-68
2022/08/02 03:41:38;;;;;;;8.02;4.35;;;14.30;75.60;;;;;;5068424;28;20313;-68
2022/08/02 03:44:05;;;;;;;9.10;4.10;;;14.20;75.80;;;;;;5059611;28;20031;-70
2022/08/02 03:46:31;;;;;;;9.60;4.53;;;14.20;75.90;;;;;;5068296;28;20028;-69
2022/08/02 03:49:04;;;;;;;6.72;4.38;;;14.10;76.10;;;;;;5070455;28;20025;-69
2022/08/02 03:51:30;;;;;;;6.93;4.15;;;14.10;75.80;;;;;;5060209;28;20037;-69
2022/08/02 03:53:56;;;;;;;7.40;4.05;;;14.10;75.80;;;;;;5068268;28;20034;-70
2022/08/02 03:56:22;;;;;;;8.48;4.32;;;14.00;75.70;;;;;;5074425;28;20038;-70
2022/08/02 03:58:47;;;;;;;7.72;4.47;;;14.00;75.50;;;;;;5061168;28;20024;-69
2022/08/02 04:01:13;;;;;;;7.97;4.35;;;14.10;75.40;;;;;;5071184;28;20028;-70
2022/08/02 04:03:39;;;;;;;6.22;4.07;;;14.20;75.50;;;;;;5068325;28;20025;-69
2022/08/02 04:06:04;;;;;;;8.50;4.75;;;14.20;75.50;;;;;;5054653;28;20368;-69
2022/08/02 04:08:32;;;;;;;8.23;4.70;;;14.10;75.90;;;;;;5077175;28;20093;-70
2022/08/02 04:13:46;;;;;;;5.78;3.40;;;14.10;75.70;;;;;;5072572;28;20043;-69
2022/08/02 04:16:17;;;;;;;6.50;4.38;;;14.10;75.40;;;;;;5067834;28;20035;-70
2022/08/02 04:18:54;;;;;;;6.57;3.80;;;14.20;75.60;;;;;;5068819;28;20078;-70
2022/08/02 04:21:22;;;;;;;8.73;5.20;;;14.10;75.80;;;;;;5073005;28;20436;-69
2022/08/02 04:23:53;;;;;;;7.60;4.80;;;14.10;75.70;;;;;;5062287;28;20029;-69
2022/08/02 04:26:20;;;;;;;8.32;3.88;;;14.00;75.70;;;;;;5073981;28;20025;-69
2022/08/02 04:28:48;;;;;;;6.20;4.40;;;14.00;75.80;;;;;;5051336;28;20028;-71
2022/08/02 04:31:16;;;;;;;8.35;3.97;;;14.00;75.60;;;;;;5054312;28;20031;-69
2022/08/02 04:33:46;;;;;;;7.05;4.15;;;14.10;75.40;;;;;;5076258;28;20028;-69
2022/08/02 04:36:13;;;;;;;6.20;4.03;;;14.10;75.70;;;;;;5068009;28;20376;-69
2022/08/02 04:38:40;;;;;;;8.00;4.93;;;14.10;75.60;;;;;;5066946;28;20037;-69
2022/08/02 04:41:06;;;;;;;6.43;4.07;;;14.20;75.50;;;;;;5066986;28;20044;-69
2022/08/02 04:43:32;;;;;;;6.47;3.83;;;14.20;75.50;;;;;;5071467;28;20051;-69
2022/08/02 04:46:01;;;;;;;9.93;4.53;;;14.20;75.60;;;;;;5074867;28;20029;-69
2022/08/02 04:48:28;;;;;;;8.15;4.72;;;14.20;75.50;;;;;;5069559;28;20055;-70
2022/08/02 04:50:53;;;;;;;7.97;4.07;;;14.20;75.60;;;;;;5062407;28;20032;-69
2022/08/02 04:53:19;;;;;;;5.97;3.70;;;14.30;75.40;;;;;;5075712;28;20032;-69
2022/08/02 04:55:45;;;;;;;6.03;3.78;;;14.40;75.40;;;;;;5069603;28;20417;-70
2022/08/02 04:58:11;;;;;;;7.07;4.18;;;14.40;75.40;;;;;;5064915;28;20029;-69
2022/08/02 05:00:37;;;;;;;7.28;3.67;;;14.40;75.40;;;;;;5049181;28;20334;-70
2022/08/02 05:03:03;;;;;;;6.90;3.80;;;14.40;75.70;;;;;;5074005;28;20017;-69
2022/08/02 05:05:29;;;;;;;6.65;4.18;;;14.40;75.50;;;;;;5072635;28;20021;-69
2022/08/02 05:07:54;;;;;;;7.47;4.25;;;14.50;75.50;;;;;;5073097;28;20059;-69
2022/08/02 05:10:20;;;;;;;6.55;3.40;;;14.50;75.80;;;;;;5076306;28;20063;-69
2022/08/02 05:12:46;;;;;;;5.75;3.55;;;14.50;75.80;;;;;;5071447;28;20143;-69
2022/08/02 05:15:17;;;;;;;6.68;3.67;;;14.50;75.80;;;;;;5070028;28;20036;-69
2022/08/02 05:17:47;;;;;;;6.13;3.67;;;14.60;75.60;;;;;;5065507;28;20119;-70
2022/08/02 05:20:16;;;;;;;6.43;3.33;;;14.70;75.70;;;;;;5065431;28;20021;-69
2022/08/02 05:22:45;;;;;;;4.65;2.83;;;14.80;75.50;;;;;;5069939;28;20300;-70
2022/08/02 05:25:13;;;;;;;6.25;3.50;;;14.90;75.60;;;;;;5066097;28;20031;-69
2022/08/02 05:27:39;;;;;;;6.30;3.60;;;15.00;75.90;;;;;;5072373;28;20364;-70
2022/08/02 05:30:14;;;;;;;8.25;4.00;;;15.20;75.90;;;;;;5072780;28;20107;-70
2022/08/02 05:32:53;;;;;;;4.97;3.28;;;15.30;75.90;;;;;;5071802;28;20032;-69
2022/08/02 05:35:21;;;;;;;6.88;3.60;;;15.30;76.20;;;;;;5071519;28;20025;-70
2022/08/02 05:37:51;;;;;;;6.07;3.08;;;15.40;76.90;;;;;;5071883;28;20044;-69
2022/08/02 05:40:19;;;;;;;7.47;3.00;;;15.50;76.70;;;;;;5071278;28;20017;-69
2022/08/02 05:42:44;;;;;;;4.88;3.17;;;15.60;77.60;;;;;;5077283;28;20033;-69
2022/08/02 05:45:13;;;;;;;6.07;3.20;;;15.60;78.00;;;;;;5065872;28;20025;-69
2022/08/02 05:47:43;;;;;;;5.60;3.50;;;15.70;78.60;;;;;;5063343;28;20021;-70
2022/08/02 05:50:09;;;;;;;4.40;3.10;;;15.90;78.70;;;;;;5071148;28;20025;-69
2022/08/02 05:52:44;;;;;;;5.47;3.47;;;16.00;79.60;;;;;;5039793;28;20108;-69
2022/08/02 05:55:22;;;;;;;5.30;3.20;;;16.10;80.30;;;;;;5071453;28;20017;-70
2022/08/02 05:57:55;;;;;;;5.85;3.42;;;16.30;80.10;;;;;;5059443;28;20024;-70
2022/08/02 06:00:21;;;;;;;5.10;3.00;;;16.40;81.70;;;;;;5069844;28;20041;-69
2022/08/02 06:03:21;;;;;;;6.50;3.03;;;16.30;82.40;;;;;;5069260;28;20036;-69
2022/08/02 06:05:59;;;;;;;4.47;2.80;;;16.40;82.70;;;;;;5058790;28;20036;-69
2022/08/02 06:08:36;;;;;;;4.88;2.90;;;16.50;84.20;;;;;;5058659;28;20056;-69
2022/08/02 06:11:05;;;;;;;5.10;2.80;;;16.60;84.40;;;;;;5066773;28;20040;-69
2022/08/02 06:13:33;;;;;;;5.03;2.80;;;16.80;84.10;;;;;;5062986;28;20103;-70
2022/08/02 06:15:59;;;;;;;5.80;2.78;;;17.00;83.30;;;;;;5063716;28;20112;-69
2022/08/02 06:18:28;;;;;;;5.78;2.90;;;17.30;84.40;;;;;;5062960;28;20025;-69
2022/08/02 06:21:01;;;;;;;7.15;3.35;;;17.50;84.70;;;;;;5063073;28;20356;-70
2022/08/02 06:23:28;;;;;;;5.15;3.13;;;17.60;87.70;;;;;;5071338;28;20409;-69
2022/08/02 06:25:56;;;;;;;5.63;3.30;;;17.60;87.90;;;;;;5065867;28;20056;-69
2022/08/02 06:28:22;;;;;;;5.32;2.90;;;17.80;86.40;;;;;;5065415;28;20024;-69
2022/08/02 06:30:48;;;;;;;4.38;2.47;;;18.00;87.40;;;;;;5066637;28;20390;-69
2022/08/02 06:33:14;;;;;;;5.22;2.70;;;18.20;88.90;;;;;;5072371;28;20028;-69
2022/08/02 06:36:16;;;;;;;6.50;2.80;;;18.40;90.00;;;;;;5072096;28;20035;-69
2022/08/02 06:39:06;;;;;;;4.50;2.30;;;18.50;93.20;;;;;;5072943;28;20033;-69
2022/08/02 06:41:48;;;;;;;4.38;2.22;;;18.60;93.80;;;;;;5069382;28;20041;-69
2022/08/02 06:44:16;;;;;;;4.22;2.33;;;18.70;94.70;;;;;;5068801;28;20074;-69
2022/08/02 06:46:42;;;;;;;5.32;2.20;;;18.90;96.50;;;;;;5066969;28;20106;-69
2022/08/02 06:49:07;;;;;;;4.63;2.33;;;19.30;98.00;;;;;;5070463;28;20064;-69
2022/08/02 06:51:36;;;;;;;5.38;2.22;;;19.70;98.00;;;;;;5069109;28;20324;-69
2022/08/02 06:54:08;;;;;;;6.22;2.33;;;20.30;98.00;;;;;;5072611;28;20055;-69
2022/08/02 06:56:34;;;;;;;4.05;1.83;;;21.10;96.80;;;;;;5068454;28;20029;-71
2022/08/02 06:58:59;;;;;;;3.42;1.83;;;21.50;93.60;;;;;;5058098;28;20578;-70
2022/08/02 07:01:28;;;;;;;4.57;2.40;;;21.80;91.60;;;;;;5071557;28;20017;-70
2022/08/02 07:03:53;;;;;;;3.83;1.60;;;22.10;90.80;;;;;;5068160;28;20024;-70
2022/08/02 07:06:19;;;;;;;3.53;1.80;;;22.10;89.90;;;;;;5073060;28;20033;-70
2022/08/02 07:08:48;;;;;;;3.38;2.00;;;21.80;89.50;;;;;;5069546;28;20441;-70
2022/08/02 07:11:13;;;;;;;4.20;2.05;;;21.20;89.90;;;;;;5073649;28;20110;-70
2022/08/02 07:13:39;;;;;;;4.57;1.85;;;20.90;91.50;;;;;;5077799;28;20099;-70
2022/08/02 07:16:05;;;;;;;5.13;2.10;;;20.80;93.10;;;;;;5069065;28;20299;-70
2022/08/02 07:18:30;;;;;;;5.63;2.00;;;20.70;92.90;;;;;;5058965;28;20428;-70
2022/08/02 07:20:56;;;;;;;4.13;1.75;;;20.40;93.30;;;;;;5056353;28;20029;-70
2022/08/02 07:23:22;;;;;;;3.47;1.77;;;20.40;93.10;;;;;;5055266;28;20053;-70
2022/08/02 07:25:48;;;;;;;4.82;2.40;;;20.50;94.10;;;;;;5070339;28;20120;-70
2022/08/02 07:28:14;;;;;;;4.95;2.00;;;20.50;94.20;;;;;;5070049;28;20028;-68
2022/08/02 07:30:41;;;;;;;4.03;1.80;;;20.70;93.90;;;;;;5073260;28;20085;-68
2022/08/02 07:33:08;;;;;;;4.70;2.10;;;20.80;93.10;;;;;;5068682;28;20097;-70
2022/08/02 07:35:34;;;;;;;5.07;1.92;;;20.90;92.20;;;;;;5078231;28;20425;-70
2022/08/02 07:37:59;;;;;;;6.82;1.98;;;21.20;91.70;;;;;;5079131;28;20123;-70
2022/08/02 07:40:26;;;;;;;3.75;1.98;;;21.30;92.40;;;;;;5036697;28;20029;-71
2022/08/02 07:42:53;;;;;;;4.65;1.90;;;21.20;93.10;;;;;;5063182;28;20052;-70
2022/08/02 07:45:21;;;;;;;4.55;1.50;;;21.30;91.30;;;;;;5064658;28;20021;-70
2022/08/02 07:47:47;;;;;;;6.38;1.60;;;22.10;90.80;;;;;;5065242;28;20031;-68
2022/08/02 07:50:15;;;;;;;5.90;1.48;;;23.30;86.00;;;;;;5074210;28;20029;-69
2022/08/02 07:52:42;;;;;;;3.03;1.30;;;24.70;84.10;;;;;;5073578;28;20066;-69
2022/08/02 07:55:09;;;;;;;4.68;1.42;;;26.10;80.40;;;;;;5064206;28;20359;-69
2022/08/02 07:57:35;;;;;;;3.35;1.35;;;27.20;77.30;;;;;;5059949;28;20054;-69
2022/08/02 08:00:02;;;;;;;5.47;1.58;;;26.40;79.40;;;;;;5074265;28;20429;-69
2022/08/02 08:02:28;;;;;;;4.15;1.70;;;26.20;80.30;;;;;;5074321;28;20048;-69
2022/08/02 08:04:57;;;;;;;3.78;1.58;;;26.50;79.90;;;;;;5061591;28;20055;-70
2022/08/02 08:07:30;;;;;;;4.07;1.30;;;26.90;77.60;;;;;;5063562;28;20056;-69
2022/08/02 08:10:01;;;;;;;3.90;1.55;;;27.40;76.80;;;;;;5069852;28;20088;-69
2022/08/02 08:12:27;;;;;;;4.25;1.50;;;27.20;76.70;;;;;;5061406;28;20032;-69
2022/08/02 08:14:55;;;;;;;3.70;1.52;;;27.10;78.40;;;;;;5063840;28;20116;-69
2022/08/02 08:17:21;;;;;;;4.07;1.48;;;27.20;77.80;;;;;;5056072;28;21408;-69
2022/08/02 08:19:46;;;;;;;3.63;1.30;;;27.40;75.70;;;;;;5066105;28;20075;-69
2022/08/02 08:22:15;;;;;;;4.97;1.50;;;28.20;74.00;;;;;;5059485;28;20024;-69
2022/08/02 08:24:40;;;;;;;3.13;1.40;;;28.70;72.80;;;;;;5073256;28;20020;-69
2022/08/02 08:27:13;;;;;;;3.33;1.42;;;29.10;71.20;;;;;;5075197;28;20310;-70
2022/08/02 08:29:41;;;;;;;2.97;1.58;;;29.30;71.30;;;;;;5070675;28;20017;-68
2022/08/02 08:32:07;;;;;;;4.13;1.30;;;28.80;72.10;;;;;;5088729;28;20017;-68
2022/08/02 08:34:35;;;;;;;3.28;1.20;;;29.00;71.40;;;;;;5073398;28;20043;-68
2022/08/02 08:37:02;;;;;;;3.13;1.48;;;29.70;69.90;;;;;;5080252;28;20420;-68
2022/08/02 08:39:28;;;;;;;2.72;1.30;;;29.60;68.80;;;;;;5083978;28;20322;-68
2022/08/02 08:41:54;;;;;;;4.78;1.60;;;29.80;68.50;;;;;;5078311;28;20021;-68
2022/08/02 08:44:23;;;;;;;4.43;1.55;;;30.00;68.10;;;;;;5077933;28;20017;-69
2022/08/02 08:46:50;;;;;;;3.10;1.20;;;29.20;68.80;;;;;;5067195;28;20313;-68
2022/08/02 08:49:32;;;;;;;3.55;1.30;;;29.30;70.00;;;;;;5075968;28;20119;-69
2022/08/02 08:52:04;;;;;;;4.85;1.20;;;29.50;68.50;;;;;;5063915;28;20056;-69
2022/08/02 08:54:31;;;;;;;2.92;1.42;;;29.70;68.00;;;;;;5085429;28;20036;-69
2022/08/02 08:57:00;;;;;;;6.60;1.30;;;29.60;67.80;;;;;;5077703;28;20032;-69
2022/08/02 08:59:29;;;;;;;5.13;1.50;;;29.80;66.70;;;;;;5077911;28;20036;-68
2022/08/02 09:01:55;;;;;;;3.30;1.23;;;30.10;66.50;;;;;;5072068;28;20021;-68
2022/08/02 09:04:21;;;;;;;2.50;1.20;;;30.10;67.10;;;;;;5076968;28;20021;-70
2022/08/02 09:06:50;;;;;;;4.13;1.30;;;30.50;65.80;;;;;;5078084;28;20418;-68
2022/08/02 09:09:16;;;;;;;3.83;1.20;;;30.90;64.60;;;;;;5076428;28;20112;-69
2022/08/02 09:11:41;;;;;;;3.97;1.70;;;29.80;66.00;;;;;;5076970;28;20099;-69
2022/08/02 09:14:07;;;;;;;3.30;1.38;;;29.10;69.00;;;;;;5084751;28;20105;-69
2022/08/02 09:16:36;;;;;;;3.75;1.40;;;29.30;67.80;;;;;;5073799;28;20032;-69
2022/08/02 09:19:22;;;;;;;2.80;1.35;;;29.40;68.20;;;;;;5071711;28;20045;-68
2022/08/02 09:21:59;;;;;;;3.15;1.27;;;30.20;64.70;;;;;;5070142;28;20078;-69
2022/08/02 09:24:25;;;;;;;6.18;1.50;;;30.40;64.30;;;;;;5073388;28;20024;-69
2022/08/02 09:26:51;;;;;;;4.32;1.30;;;29.70;64.50;;;;;;5068815;28;20040;-67
2022/08/02 09:29:20;;;;;;;4.00;1.45;;;29.80;65.80;;;;;;5072937;28;20032;-69
2022/08/02 09:31:46;;;;;;;2.45;1.13;;;30.30;66.20;;;;;;5073221;28;20028;-69
2022/08/02 09:34:12;;;;;;;2.90;1.50;;;30.00;64.30;;;;;;5069595;28;20043;-68
2022/08/02 09:36:44;;;;;;;3.13;1.17;;;30.40;63.70;;;;;;5070310;28;20444;-68
2022/08/02 09:39:12;;;;;;;5.32;1.10;;;30.90;63.80;;;;;;5071458;28;20041;-69
2022/08/02 09:41:40;;;;;;;3.53;1.40;;;30.90;61.90;;;;;;5074526;28;20070;-69
2022/08/02 09:44:11;;;;;;;2.55;1.10;;;30.40;64.10;;;;;;5073024;28;20024;-69
2022/08/02 09:46:42;;;;;;;2.50;1.10;;;30.10;64.10;;;;;;5075056;28;20029;-69
2022/08/02 09:49:11;;;;;;;4.40;1.30;;;30.90;61.20;;;;;;5073198;28;20090;-69
2022/08/02 09:51:48;;;;;;;2.78;1.50;;;31.00;61.70;;;;;;5073332;28;20047;-67
2022/08/02 09:54:26;;;;;;;5.68;1.60;;;31.00;62.70;;;;;;5072018;28;20028;-68
2022/08/02 09:56:58;;;;;;;6.05;1.60;;;30.30;64.00;;;;;;5074001;28;20110;-67
2022/08/02 09:59:25;;;;;;;2.15;0.93;;;30.50;62.70;;;;;;5070960;28;20032;-69
2022/08/02 10:01:51;;;;;;;2.97;1.25;;;30.80;61.80;;;;;;5071591;28;20441;-69
2022/08/02 10:04:24;;;;;;;3.67;1.23;;;31.00;59.10;;;;;;5072363;28;20312;-69
2022/08/02 10:06:52;;;;;;;1.90;1.10;;;31.40;59.20;;;;;;5066684;28;20028;-69
2022/08/02 10:09:19;;;;;;;4.13;1.20;;;31.90;57.70;;;;;;5061607;28;20278;-68
2022/08/02 10:11:48;;;;;;;5.03;1.52;;;31.60;59.40;;;;;;5079976;28;20493;-68
2022/08/02 10:14:14;;;;;;;2.63;1.30;;;31.20;60.10;;;;;;5059136;28;20033;-68
2022/08/02 10:16:44;;;;;;;4.43;1.40;;;30.30;61.40;;;;;;5056057;28;20068;-69
2022/08/02 10:19:10;;;;;;;3.25;1.30;;;30.70;61.30;;;;;;5061234;28;20037;-68
2022/08/02 10:22:00;;;;;;;3.97;1.33;;;30.90;61.00;;;;;;5073857;28;20036;-69
2022/08/02 10:24:31;;;;;;;3.00;1.27;;;30.80;61.00;;;;;;5073620;28;20029;-69
2022/08/02 10:27:02;;;;;;;3.20;1.30;;;30.60;63.50;;;;;;5075326;28;20287;-69
2022/08/02 10:29:37;;;;;;;3.90;1.80;;;30.70;61.90;;;;;;5071218;28;20085;-69
2022/08/02 10:32:19;;;;;;;4.72;1.27;;;30.20;62.20;;;;;;5080045;28;20039;-69
2022/08/02 10:35:03;;;;;;;4.00;1.70;;;30.10;62.90;;;;;;5075114;28;20480;-69
2022/08/02 10:37:32;;;;;;;4.55;1.50;;;29.90;62.60;;;;;;5075580;28;20048;-68
2022/08/02 10:39:58;;;;;;;4.40;1.30;;;29.70;64.20;;;;;;5071207;28;20025;-69
2022/08/02 10:42:45;;;;;;;4.47;1.60;;;30.20;63.00;;;;;;5074237;28;20016;-68
2022/08/02 10:45:16;;;;;;;5.22;1.45;;;29.90;62.10;;;;;;5065366;28;20017;-69
2022/08/02 10:48:02;;;;;;;4.32;1.70;;;29.60;63.30;;;;;;5074059;28;20024;-69
2022/08/02 10:50:46;;;;;;;2.95;1.50;;;29.60;62.60;;;;;;5067217;28;20028;-69
2022/08/02 10:53:25;;;;;;;2.83;1.40;;;29.90;63.50;;;;;;5074245;28;20029;-69
2022/08/02 10:55:56;;;;;;;2.78;1.42;;;30.10;63.30;;;;;;5054261;28;20035;-69
2022/08/02 10:58:23;;;;;;;5.45;1.67;;;29.20;63.20;;;;;;5061227;28;20024;-69
2022/08/02 11:00:49;;;;;;;5.13;1.67;;;29.00;65.30;;;;;;5071655;28;20055;-69
2022/08/02 11:03:27;;;;;;;3.10;1.45;;;29.30;63.90;;;;;;5058074;28;20033;-69
2022/08/02 11:06:05;;;;;;;5.07;1.58;;;29.40;63.80;;;;;;5062881;28;20033;-69
2022/08/02 11:08:33;;;;;;;4.15;1.80;;;29.10;65.10;;;;;;5070567;28;20044;-69
2022/08/02 11:11:21;;;;;;;4.93;1.70;;;29.10;63.90;;;;;;5074241;28;20029;-69
2022/08/02 11:13:58;;;;;;;4.25;1.60;;;29.00;66.50;;;;;;5065990;28;20157;-69
2022/08/02 11:16:55;;;;;;;4.45;1.33;;;29.90;64.50;;;;;;5075641;28;20051;-69
2022/08/02 11:19:22;;;;;;;3.63;1.40;;;30.10;63.00;;;;;;5070889;28;20328;-69
2022/08/02 11:22:09;;;;;;;3.28;1.40;;;30.50;62.70;;;;;;5083772;28;20028;-69
2022/08/02 11:24:36;;;;;;;4.55;1.60;;;30.50;62.10;;;;;;5074422;28;20033;-69
2022/08/02 11:27:04;;;;;;;3.88;1.58;;;29.90;63.30;;;;;;5056908;28;20032;-68
2022/08/02 11:29:41;;;;;;;6.20;1.88;;;29.50;63.60;;;;;;5076416;28;20040;-69
2022/08/02 11:32:15;;;;;;;4.72;1.52;;;29.30;65.40;;;;;;5075892;28;20029;-69
2022/08/02 11:34:41;;;;;;;4.82;1.63;;;29.40;65.10;;;;;;5069671;28;20032;-69
2022/08/02 11:37:07;;;;;;;3.45;1.70;;;29.10;65.90;;;;;;5073038;28;20113;-69
2022/08/02 11:39:32;;;;;;;4.35;1.58;;;28.80;65.70;;;;;;5071527;28;20129;-69
2022/08/02 11:42:00;;;;;;;3.75;1.70;;;28.50;66.30;;;;;;5067806;28;20032;-68
2022/08/02 11:44:28;;;;;;;3.35;1.73;;;28.70;66.30;;;;;;5072434;28;20024;-69
2022/08/02 11:46:58;;;;;;;4.80;1.67;;;29.10;65.50;;;;;;5074594;28;20032;-69
2022/08/02 11:49:27;;;;;;;2.80;1.50;;;28.90;65.90;;;;;;5070011;28;20029;-69
2022/08/02 11:51:58;;;;;;;3.40;1.60;;;28.80;65.30;;;;;;5067792;28;20039;-69
2022/08/02 11:54:29;;;;;;;2.95;1.42;;;28.80;64.70;;;;;;5073552;28;20336;-69
2022/08/02 11:57:10;;;;;;;3.15;1.38;;;29.10;65.20;;;;;;5075015;28;20035;-69
2022/08/02 11:59:38;;;;;;;2.72;1.40;;;30.00;64.60;;;;;;5072722;28;20455;-69
2022/08/02 12:02:05;;;;;;;3.92;1.52;;;30.60;63.90;;;;;;5060848;28;20422;-69
2022/08/02 12:04:31;;;;;;;3.78;1.60;;;31.00;61.70;;;;;;5073635;28;20396;-69
2022/08/02 12:06:58;;;;;;;4.38;1.50;;;30.80;61.70;;;;;;5072670;28;20077;-68
2022/08/02 12:09:26;;;;;;;4.38;1.20;;;30.40;62.00;;;;;;5066019;28;20036;-69
2022/08/02 12:11:53;;;;;;;5.15;1.40;;;30.20;62.10;;;;;;5074122;28;20020;-68
2022/08/02 12:14:19;;;;;;;7.43;1.75;;;29.70;62.70;;;;;;5069248;28;20021;-68
2022/08/02 12:19:29;;;;;;;3.55;1.58;;;29.00;64.20;;;;;;5070696;28;20055;-69
2022/08/02 12:22:17;;;;;;;3.95;1.58;;;28.70;65.30;;;;;;5077482;28;20024;-68
2022/08/02 12:24:50;;;;;;;4.57;1.88;;;28.60;64.90;;;;;;5066200;28;20069;-68
2022/08/02 12:27:39;;;;;;;3.30;1.48;;;28.70;64.70;;;;;;5076592;28;20115;-68
2022/08/02 12:30:15;;;;;;;3.67;1.45;;;28.30;64.60;;;;;;5084559;28;20430;-68
2022/08/02 12:32:40;;;;;;;2.88;1.67;;;28.40;64.90;;;;;;5082062;28;20020;-68
2022/08/02 12:35:10;;;;;;;3.35;1.40;;;28.70;63.80;;;;;;5074703;28;20327;-69
2022/08/02 12:37:40;;;;;;;3.85;1.60;;;28.80;65.60;;;;;;5080467;28;20420;-69
2022/08/02 12:40:33;;;;;;;3.20;1.40;;;29.10;63.30;;;;;;5056304;28;20029;-69
2022/08/02 12:43:02;;;;;;;4.75;1.60;;;29.00;62.40;;;;;;5055524;28;20029;-69
2022/08/02 12:45:30;;;;;;;3.15;1.63;;;29.10;63.10;;;;;;5061403;28;20028;-69
2022/08/02 12:47:58;;;;;;;5.75;1.60;;;29.60;62.00;;;;;;5058072;28;20376;-69
2022/08/02 12:50:32;;;;;;;4.55;1.40;;;30.10;61.40;;;;;;5086117;28;20024;-69
2022/08/02 12:53:11;;;;;;;3.50;1.30;;;30.80;61.10;;;;;;5073824;28;20032;-68
2022/08/02 12:55:53;;;;;;;3.13;1.40;;;31.00;60.00;;;;;;5071434;28;20025;-69
2022/08/02 12:58:19;;;;;;;2.72;1.10;;;30.60;59.20;;;;;;5059482;28;20025;-69
2022/08/02 13:00:58;;;;;;;3.45;1.30;;;30.80;60.70;;;;;;5088322;28;20028;-69
2022/08/02 13:03:26;;;;;;;2.80;1.35;;;31.20;59.50;;;;;;5072566;28;20029;-69
2022/08/02 13:05:52;;;;;;;4.13;1.45;;;31.60;58.20;;;;;;5059131;28;20301;-67